Erie, IL

8:39 PM CDT on July 04, 2015 (GMT -0500)
in phenix twp | | Change Station
CLOSE
Current Station
Personal Weather Station
Location: Geneseo, IL
Elevation: 650 ft
Nearby Weather Stations

Elev 650 ft 41.52 °N, 90.15 °W | Updated 15 seconds ago

Clear
Clear
72.9 °F
Feels Like 74 °F
N
1.0
Wind Variable Wind from SSW
Gusts 7.0 mph

Today
High -- | Low -- °F
--% Chance of Precip.
Yesterday
High -- | Low -- °F
Precip. -- in
5:31 AM 8:37 PM
Waning Gibbous, 89% visible
Pressure 30.00 in
Visibility 10.0 miles
Clouds Clear
Heat Index 74 °F
Dew Point 64 °F
Humidity 75%
Rainfall 0.00 in
Snow Depth Not available.
UV 0.0 out of 12
Pollen 3.80 out of 12
Air Quality Not available.
Flu Activity Not available.
METAR KCWI 042355Z 00000KT 10SM CLR 25/16 A3000 RMK AO1 10260 20240 402600130 57010

More Conditions Fewer Conditions

Pressure 30.00 in
Visibility 10.0 miles
Clouds Clear
Heat Index 74 °F
Dew Point 64 °F
Humidity 75%
Rainfall 0.00 in
Snow Depth Not available.
UV 0.0 out of 12
Pollen 3.80 out of 12
Air Quality Not available.
Flu Activity Not available.
METAR KCWI 042355Z 00000KT 10SM CLR 25/16 A3000 RMK AO1 10260 20240 402600130 57010

More Conditions Fewer Conditions

10-Day Weather Forecast

×

Almanac

Astronomy

Jul. 04, 2015 Rise Set
Actual Time
Civil Twilight
Nautical Twilight
Astronomical Twilight
Moon
Length of Visible Light
Length of Day
Tomorrow will be .
, % of the Moon is Illuminated

Today's Extremes

State Highs State Lows

Community

WunderPhotos

Upload Photos

1,835,138 photos uploaded!

WunderBlogs® & News

Nearby

Air Quality

  Air Quality AQ Index Pollutant
Not available.

Snow Depth

Station Depth Elevation

Earthquake Activity

City Distance Mag. Time & Date
Minimum magnitude displayed is 2.5.

Coastal Water Temperatures

Place Temperature

Stations

Nearby Weather Stations

Station Location Temp. Windchill Dew Point Humidity Wind Precip. Elev Updated Type